WetterOnline ( https://www.wetteronline.de )

Wetter aktuell Boitzenburger Land

Aktuelles Wetter: Feldberg (115m)

6-stündlich | Neueste Meldungen
Ortszeit Temperatur Wetter
So, 29.01. 19:00 1.6° C Sprühregen
So, 29.01. 13:00 2.2° C bedeckt
So, 29.01. 7:00 0.4° C Nebel
So, 29.01. 1:00 -0.7° C bedeckt
Sa, 28.01. 19:00 -1.5° C bedeckt
Sa, 28.01. 13:00 1.1° C bedeckt
Sa, 28.01. 7:00 0.6° C bedeckt
Sa, 28.01. 1:00 0.9° C bedeckt
Ortszeit Temperatur Wetter
So, 29.01. 22:30 1.2° C bedeckt
So, 29.01. 22:20 1.2° C bedeckt
So, 29.01. 22:10 1.2° C bedeckt
So, 29.01. 22:00 1.1° C bedeckt
So, 29.01. 21:50 1.1° C bedeckt
So, 29.01. 21:40 1.1° C bedeckt
So, 29.01. 21:30 1.0° C Sprühregen
So, 29.01. 21:00 1.0° C leichter Schneefall
So, 29.01. 20:30 1.4° C Sprühregen
So, 29.01. 20:00 1.6° C bedeckt
So, 29.01. 19:30 1.7° C bedeckt
Ortszeit Relative Feuchte Sichtweite
So, 29.01. 19:00 88% 10 km
So, 29.01. 13:00 94% 10 km
So, 29.01. 7:00 98% 0.7 km
So, 29.01. 1:00 82% 30 km
Sa, 28.01. 19:00 80% 55 km
Sa, 28.01. 13:00 64% 55 km
Sa, 28.01. 7:00 70% >70 km
Sa, 28.01. 1:00 69% >70 km
Ortszeit Relative Feuchte Sichtweite
So, 29.01. 22:30 90% 11 km
So, 29.01. 22:20 90% -
So, 29.01. 22:10 90% -
So, 29.01. 22:00 91% 9 km
So, 29.01. 21:50 91% -
So, 29.01. 21:40 91% -
So, 29.01. 21:30 92% 8 km
So, 29.01. 21:00 92% 7 km
So, 29.01. 20:30 89% 10 km
So, 29.01. 20:00 88% 12 km
So, 29.01. 19:30 87% 11 km
Ortszeit Niederschlagsmenge Niederschlagsart
So, 29.01. 19:00 0.1 l/m2 in 12 Std. Regen
So, 29.01. 13:00 0.0 l/m2 in 6 Std. -
So, 29.01. 7:00 0.1 l/m2 in 12 Std. Regen
So, 29.01. 1:00 0.1 l/m2 in 6 Std. Schnee
Sa, 28.01. 19:00 0.0 l/m2 in 12 Std. -
Sa, 28.01. 13:00 0.0 l/m2 in 6 Std. -
Sa, 28.01. 7:00 0.0 l/m2 in 12 Std. -
Sa, 28.01. 1:00 0.0 l/m2 in 6 Std. -
Ortszeit Niederschlagsmenge Niederschlagsart
So, 29.01. 22:30 0.0 l/m2 in 30 Min -
So, 29.01. 22:20 keine Meldung -
So, 29.01. 22:10 keine Meldung -
So, 29.01. 22:00 <0.05 l/m2 in 1 Std. Schnee, Regen
So, 29.01. 21:50 keine Meldung -
So, 29.01. 21:40 keine Meldung -
So, 29.01. 21:30 <0.05 l/m2 in 30 Min -
So, 29.01. 21:00 <0.05 l/m2 in 1 Std. Schnee, Regen
So, 29.01. 20:30 <0.05 l/m2 in 30 Min -
So, 29.01. 20:00 <0.05 l/m2 in 1 Std. Regen
So, 29.01. 19:30 <0.05 l/m2 in 30 Min Schneeregen
Ortszeit Stärke Spitze Richtung
km/h Bft. km/h Grad Sektor
So, 29.01. 19:00 25 4 40 230° SW
So, 29.01. 13:00 18 3 36 240° SW
So, 29.01. 7:00 14 3 32 270° W
So, 29.01. 1:00 15 3 26 240° SW
Sa, 28.01. 19:00 9 2 20 250° W
Sa, 28.01. 13:00 11 2 18 330° NW
Sa, 28.01. 7:00 7 2 14 330° NW
Sa, 28.01. 1:00 11 2 29 50° NO
Ortszeit Stärke Spitze Richtung
km/h Bft. km/h Grad Sektor
So, 29.01. 22:30 28 4 43 230° SW
So, 29.01. 22:20 28 4 - 230° SW
So, 29.01. 22:10 29 5 - 240° SW
So, 29.01. 22:00 26 4 41 240° SW
So, 29.01. 21:50 26 4 - 240° SW
So, 29.01. 21:40 25 4 - 230° SW
So, 29.01. 21:30 25 4 36 230° SW
So, 29.01. 21:00 24 4 35 230° SW
So, 29.01. 20:30 22 4 36 230° SW
So, 29.01. 20:00 24 4 39 230° SW
So, 29.01. 19:30 24 4 39 240° SW
Ortszeit Untergrenze Bedeckung Gattung
total tief tief mittel hoch
So, 29.01. 19:00 240 m 8/8 8/8 - - -
So, 29.01. 13:00 180 m 8/8 8/8 - - -
So, 29.01. 7:00 30 m 8/8 8/8 - - -
So, 29.01. 1:00 270 m 8/8 8/8 - - -
Sa, 28.01. 19:00 2700 m 8/8 8/8 - - -
Sa, 28.01. 13:00 870 m 8/8 8/8 - - -
Sa, 28.01. 7:00 780 m 8/8 8/8 - - -
Sa, 28.01. 1:00 750 m 8/8 8/8 - - -
Ortszeit Bedeckungsgrad in Achtel und Wolkenuntergrenze
So, 29.01. 22:30 8(210m)
So, 29.01. 22:20 8(210m)
So, 29.01. 22:10 8
So, 29.01. 22:00 8(180m)
So, 29.01. 21:50 8(180m)
So, 29.01. 21:40 8
So, 29.01. 21:30 8(180m)
So, 29.01. 21:00 8(210m)
So, 29.01. 20:30 8(240m)
So, 29.01. 20:00 8(240m)
So, 29.01. 19:30 8(270m)
Ortszeit Luftdruck NN (hPa) Tendenz (hPa in 3 Std.)
So, 29.01. 19:00 1017 - 1,9
So, 29.01. 13:00 1021 - 1,9
So, 29.01. 7:00 1024 - 1,0
So, 29.01. 1:00 1026 - 1,3
Sa, 28.01. 19:00 1028 + 0,1
Sa, 28.01. 13:00 1029 - 0,1
Sa, 28.01. 7:00 1028 - 0,1
Sa, 28.01. 1:00 1028 - 0,4
Ortszeit Luftdruck NN (hPa) Tendenz (hPa in 3 Std.)
So, 29.01. 22:30 1014 - 3,4
So, 29.01. 22:20 1014 keine Meldung
So, 29.01. 22:10 1014 keine Meldung
So, 29.01. 22:00 1014 - 2,9
So, 29.01. 21:50 1014 keine Meldung
So, 29.01. 21:40 1015 keine Meldung
So, 29.01. 21:30 1015 - 2,6
So, 29.01. 21:00 1016 - 2,5
So, 29.01. 20:30 1016 - 2,3
So, 29.01. 20:00 1017 - 2,1
So, 29.01. 19:30 1017 - 1,9
Ortszeit Schneehöhe (cm)
So, 29.01. 19:00 0
So, 29.01. 13:00 0
So, 29.01. 7:00 0
So, 29.01. 1:00 0
Sa, 28.01. 19:00 0
Sa, 28.01. 13:00 0
Sa, 28.01. 7:00 0
Sa, 28.01. 1:00 0
Ortszeit Schneehöhe (cm)
So, 29.01. 22:30 0
So, 29.01. 22:20 0
So, 29.01. 22:10 0
So, 29.01. 22:00 0
So, 29.01. 21:50 0
So, 29.01. 21:40 0
So, 29.01. 21:30 0
So, 29.01. 21:00 0
So, 29.01. 20:30 0
So, 29.01. 20:00 0
So, 29.01. 19:30 0
Link zu dieser Seite / Seite empfehlen

Das Wetter in ...